createdAt,value
2023-03-26T00:01:16.569Z,0.90
2023-03-26T00:03:47.148Z,0.67
2023-03-26T00:06:16.524Z,1.33
2023-03-26T00:08:45.653Z,1.27
2023-03-26T00:11:16.008Z,0.90
2023-03-26T00:13:43.880Z,1.48
2023-03-26T00:16:19.721Z,1.60
2023-03-26T00:18:47.274Z,1.88
2023-03-26T00:21:16.146Z,1.73
2023-03-26T00:23:43.756Z,1.77
2023-03-26T00:26:11.059Z,1.27
2023-03-26T00:28:40.393Z,1.80
2023-03-26T00:31:09.816Z,1.98
2023-03-26T00:33:40.803Z,2.38
2023-03-26T00:36:11.171Z,2.45
2023-03-26T00:38:38.851Z,2.03
2023-03-26T00:41:07.945Z,1.83
2023-03-26T00:43:36.140Z,2.25
2023-03-26T00:46:03.342Z,1.83
2023-03-26T00:48:44.016Z,1.92
2023-03-26T00:51:15.223Z,1.55
2023-03-26T00:53:42.420Z,1.50
2023-03-26T00:56:09.707Z,1.30
2023-03-26T00:58:37.164Z,1.80
2023-03-26T01:01:07.104Z,2.08
2023-03-26T01:03:36.524Z,2.08
2023-03-26T01:06:32.749Z,1.73
2023-03-26T01:09:06.862Z,1.45
2023-03-26T01:11:35.752Z,1.85
2023-03-26T01:14:10.184Z,1.40
2023-03-26T01:16:57.124Z,2.00
2023-03-26T01:19:45.162Z,0.97
2023-03-26T01:22:21.065Z,1.27
2023-03-26T01:24:53.149Z,1.52
2023-03-26T01:27:41.137Z,1.48
2023-03-26T01:30:22.611Z,1.45
2023-03-26T01:32:55.696Z,1.70
2023-03-26T01:35:28.265Z,1.40
2023-03-26T01:38:00.807Z,1.05
2023-03-26T01:41:12.271Z,0.90
2023-03-26T01:44:03.117Z,1.52
2023-03-26T01:46:36.119Z,0.87
2023-03-26T01:49:12.836Z,1.15
2023-03-26T01:51:41.914Z,1.17
2023-03-26T01:54:13.341Z,1.40
2023-03-26T01:56:48.987Z,1.13
2023-03-26T01:59:38.742Z,1.10
2023-03-26T02:02:14.116Z,1.35
2023-03-26T02:04:40.665Z,1.73
2023-03-26T02:07:13.132Z,1.20
2023-03-26T02:09:45.807Z,1.65
2023-03-26T02:12:14.662Z,1.17
2023-03-26T02:14:42.864Z,1.67
2023-03-26T02:17:10.814Z,1.20
2023-03-26T02:19:41.926Z,1.73
2023-03-26T02:22:11.310Z,1.08
2023-03-26T02:24:38.736Z,0.97
2023-03-26T02:27:07.770Z,1.30
2023-03-26T02:29:37.857Z,1.25
2023-03-26T02:32:05.472Z,1.35
2023-03-26T02:34:32.351Z,1.33
2023-03-26T02:36:58.795Z,1.30
2023-03-26T02:39:26.231Z,1.20
2023-03-26T02:41:52.690Z,1.23
2023-03-26T02:44:19.204Z,1.60
2023-03-26T02:46:45.785Z,1.15
2023-03-26T02:49:12.287Z,1.20
2023-03-26T02:51:38.815Z,1.65
2023-03-26T02:54:06.963Z,1.63
2023-03-26T02:56:33.497Z,1.05
2023-03-26T02:58:59.942Z,0.93
2023-03-26T03:01:26.761Z,1.07
2023-03-26T03:03:54.175Z,1.30
2023-03-26T03:06:20.847Z,1.20
2023-03-26T03:08:47.640Z,1.25
2023-03-26T03:11:17.002Z,1.30
2023-03-26T03:13:44.716Z,1.60
2023-03-26T03:16:11.229Z,1.67
2023-03-26T03:18:37.773Z,1.77
2023-03-26T03:21:06.062Z,1.75
2023-03-26T03:23:32.875Z,2.20
2023-03-26T03:25:59.302Z,1.07
2023-03-26T03:28:26.609Z,1.95
2023-03-26T03:30:53.221Z,1.60
2023-03-26T03:33:21.431Z,1.75
2023-03-26T03:35:49.550Z,1.15
2023-03-26T03:38:19.307Z,1.43
2023-03-26T03:40:46.091Z,1.77
2023-03-26T03:43:12.523Z,1.90
2023-03-26T03:45:38.938Z,2.35
2023-03-26T03:48:05.882Z,2.83
2023-03-26T03:50:35.052Z,2.63
2023-03-26T03:53:02.905Z,3.28
2023-03-26T03:55:29.966Z,2.58
2023-03-26T03:57:58.286Z,2.83
2023-03-26T04:00:24.784Z,4.40
2023-03-26T04:02:54.383Z,4.63
2023-03-26T04:05:21.228Z,5.10
2023-03-26T04:07:47.654Z,4.68
2023-03-26T04:10:15.954Z,5.93
2023-03-26T04:12:42.365Z,6.20
2023-03-26T04:15:09.079Z,4.13
2023-03-26T04:17:42.335Z,5.40
2023-03-26T04:20:15.520Z,5.63
2023-03-26T04:22:43.429Z,4.82
2023-03-26T04:25:12.327Z,5.47
2023-03-26T04:27:41.606Z,4.97
2023-03-26T04:30:11.274Z,4.95
2023-03-26T04:32:40.323Z,5.00
2023-03-26T04:35:07.171Z,4.43
2023-03-26T04:37:39.869Z,5.05
2023-03-26T04:40:15.432Z,4.83
2023-03-26T04:42:45.897Z,5.28
2023-03-26T04:45:14.899Z,5.25
2023-03-26T04:47:41.822Z,5.28
2023-03-26T04:50:10.247Z,5.78
2023-03-26T04:52:37.518Z,5.67
2023-03-26T04:55:07.573Z,4.28
2023-03-26T04:57:46.242Z,4.57
2023-03-26T05:00:16.326Z,4.03
2023-03-26T05:02:43.337Z,5.55
2023-03-26T05:05:10.717Z,4.70
2023-03-26T05:07:37.419Z,4.82
2023-03-26T05:10:05.033Z,5.78
2023-03-26T05:12:31.548Z,5.97
2023-03-26T05:14:57.967Z,5.68
2023-03-26T05:17:25.252Z,5.10
2023-03-26T05:19:54.478Z,5.05
2023-03-26T05:22:20.945Z,5.40
2023-03-26T05:24:47.378Z,6.07
2023-03-26T05:27:16.908Z,5.68
2023-03-26T05:29:43.919Z,4.80
2023-03-26T05:32:10.895Z,4.75
2023-03-26T05:34:39.152Z,5.22
2023-03-26T05:37:06.793Z,5.30
2023-03-26T05:39:33.750Z,4.63
2023-03-26T05:42:00.189Z,4.20
2023-03-26T05:44:26.865Z,4.53
2023-03-26T05:46:53.491Z,5.32
2023-03-26T05:49:20.183Z,4.75
2023-03-26T05:51:46.606Z,5.90
2023-03-26T05:54:13.020Z,5.77
2023-03-26T05:56:39.526Z,6.53
2023-03-26T05:59:06.758Z,6.78
2023-03-26T06:01:33.251Z,7.07
2023-03-26T06:03:59.772Z,6.70
2023-03-26T06:06:26.468Z,5.97
2023-03-26T06:09:02.195Z,6.00
2023-03-26T06:11:30.960Z,6.10
2023-03-26T06:13:57.618Z,6.43
2023-03-26T06:16:27.822Z,6.07
2023-03-26T06:18:56.888Z,6.60
2023-03-26T06:21:24.828Z,6.13
2023-03-26T06:23:51.751Z,6.10
2023-03-26T06:26:18.449Z,5.82
2023-03-26T06:28:44.902Z,6.32
2023-03-26T06:31:11.873Z,5.53
2023-03-26T06:33:38.506Z,6.75
2023-03-26T06:36:05.939Z,6.13
2023-03-26T06:38:32.387Z,5.43
2023-03-26T06:41:03.553Z,5.75
2023-03-26T06:43:33.543Z,6.33
2023-03-26T06:46:01.273Z,7.20
2023-03-26T06:48:28.247Z,6.55
2023-03-26T06:50:55.083Z,5.45
2023-03-26T06:53:21.684Z,6.68
2023-03-26T06:55:48.144Z,5.97
2023-03-26T06:58:14.707Z,6.25
2023-03-26T07:00:42.272Z,6.93
2023-03-26T07:03:08.859Z,6.07
2023-03-26T07:05:35.363Z,6.30
2023-03-26T07:08:03.015Z,5.53
2023-03-26T07:10:29.479Z,7.18
2023-03-26T07:12:56.056Z,6.63
2023-03-26T07:15:22.588Z,6.90
2023-03-26T07:17:49.117Z,6.90
2023-03-26T07:20:15.779Z,6.50
2023-03-26T07:22:42.667Z,6.03
2023-03-26T07:25:10.045Z,7.20
2023-03-26T07:27:59.993Z,6.03
2023-03-26T07:30:50.645Z,7.40
2023-03-26T07:33:37.676Z,5.85
2023-03-26T07:36:46.716Z,7.45
2023-03-26T07:39:42.785Z,7.07
2023-03-26T07:42:45.401Z,6.80
2023-03-26T07:45:41.498Z,6.70
2023-03-26T07:48:18.664Z,7.00
2023-03-26T07:50:46.144Z,7.93
2023-03-26T07:53:12.802Z,6.67
2023-03-26T07:55:50.331Z,6.93
2023-03-26T07:58:38.214Z,7.22
2023-03-26T08:01:12.340Z,6.80
2023-03-26T08:04:24.062Z,6.97
2023-03-26T08:07:05.694Z,6.03
2023-03-26T08:09:42.166Z,7.72
2023-03-26T08:12:24.495Z,6.57
2023-03-26T08:14:53.819Z,7.03
2023-03-26T08:17:49.077Z,7.60
2023-03-26T08:20:41.475Z,7.37
2023-03-26T08:23:11.969Z,7.53
2023-03-26T08:26:09.350Z,7.80
2023-03-26T08:28:52.941Z,6.72
2023-03-26T08:31:27.517Z,6.40
2023-03-26T08:33:53.921Z,7.73
2023-03-26T08:36:20.474Z,9.45
2023-03-26T08:38:46.992Z,8.60
2023-03-26T08:41:15.032Z,8.45
2023-03-26T08:43:59.965Z,8.25
2023-03-26T08:46:52.200Z,7.93
2023-03-26T08:49:34.058Z,8.80
2023-03-26T08:52:19.227Z,8.50
2023-03-26T08:55:07.766Z,8.23
2023-03-26T08:57:54.357Z,7.93
2023-03-26T09:00:45.940Z,8.67
2023-03-26T09:03:37.219Z,8.07
2023-03-26T09:06:11.415Z,9.85
2023-03-26T09:09:07.608Z,10.02
2023-03-26T09:12:12.872Z,8.32
2023-03-26T09:15:24.834Z,7.77
2023-03-26T09:18:16.094Z,8.30
2023-03-26T09:20:54.827Z,9.27
2023-03-26T09:23:33.592Z,8.80
2023-03-26T09:26:04.470Z,7.85
2023-03-26T09:28:47.033Z,8.87
2023-03-26T09:31:51.464Z,8.82
2023-03-26T09:34:28.741Z,6.13
2023-03-26T09:37:20.393Z,8.27
2023-03-26T09:40:25.282Z,7.90
2023-03-26T09:43:11.234Z,7.83
2023-03-26T09:46:14.705Z,6.53
2023-03-26T09:49:02.088Z,7.35
2023-03-26T09:51:50.243Z,6.32
2023-03-26T09:54:21.709Z,5.25
2023-03-26T09:56:57.826Z,6.27
2023-03-26T09:59:53.354Z,6.05
2023-03-26T10:02:47.710Z,4.50
2023-03-26T10:05:27.853Z,4.75
2023-03-26T10:08:21.783Z,5.80
2023-03-26T10:11:02.158Z,4.07
2023-03-26T10:13:39.163Z,4.13
2023-03-26T10:16:21.351Z,3.97
2023-03-26T10:19:04.331Z,4.00
2023-03-26T10:21:47.360Z,4.22
2023-03-26T10:24:33.022Z,4.50
2023-03-26T10:27:15.220Z,4.45
2023-03-26T10:30:04.032Z,3.63
2023-03-26T10:32:46.806Z,3.35
2023-03-26T10:35:13.190Z,3.90
2023-03-26T10:38:02.232Z,3.13
2023-03-26T10:40:35.704Z,3.22
2023-03-26T10:43:24.123Z,2.72
2023-03-26T10:46:15.669Z,2.88
2023-03-26T10:49:01.000Z,2.70
2023-03-26T10:51:45.314Z,2.20
2023-03-26T10:54:25.821Z,2.92
2023-03-26T10:56:54.327Z,2.53
2023-03-26T10:59:20.934Z,2.25
2023-03-26T11:01:59.543Z,1.65
2023-03-26T11:04:57.123Z,1.53
2023-03-26T11:07:33.769Z,2.58
2023-03-26T11:10:24.222Z,2.28
2023-03-26T11:13:21.857Z,2.00
2023-03-26T11:15:53.402Z,2.50
2023-03-26T11:18:34.922Z,2.17
2023-03-26T11:21:19.165Z,1.45
2023-03-26T11:23:46.769Z,2.15
2023-03-26T11:26:18.494Z,1.60
2023-03-26T11:29:31.135Z,1.75
2023-03-26T11:32:11.625Z,2.47
2023-03-26T11:34:46.952Z,1.88
2023-03-26T11:37:27.136Z,1.75
2023-03-26T11:39:58.648Z,1.25
2023-03-26T11:42:25.721Z,2.22
2023-03-26T11:44:57.256Z,1.80
2023-03-26T11:47:31.874Z,1.50
2023-03-26T11:50:00.655Z,1.70
2023-03-26T11:52:27.516Z,1.52
2023-03-26T11:54:54.146Z,2.28
2023-03-26T11:57:25.797Z,1.60
2023-03-26T12:00:04.326Z,1.75
2023-03-26T12:02:38.113Z,2.28
2023-03-26T12:05:13.362Z,1.70
2023-03-26T12:07:47.434Z,1.60
2023-03-26T12:10:25.580Z,1.20
2023-03-26T12:12:54.930Z,0.95
2023-03-26T12:15:21.874Z,1.20
2023-03-26T12:17:53.367Z,2.05
2023-03-26T12:20:26.174Z,1.95
2023-03-26T12:23:00.906Z,0.87
2023-03-26T12:25:36.272Z,1.13
2023-03-26T12:28:05.620Z,1.40
2023-03-26T12:30:39.557Z,2.05
2023-03-26T12:33:15.031Z,1.15
2023-03-26T12:35:42.210Z,0.87
2023-03-26T12:38:37.580Z,1.20
2023-03-26T12:41:08.557Z,0.90
2023-03-26T12:44:46.780Z,1.00
2023-03-26T12:47:56.642Z,1.00
2023-03-26T12:49:33.531Z,1.37
2023-03-26T12:52:44.127Z,1.20
2023-03-26T12:55:31.363Z,1.35
2023-03-26T12:58:25.779Z,0.70
2023-03-26T13:01:05.996Z,0.45
2023-03-26T13:03:53.190Z,0.60
2023-03-26T13:06:59.057Z,0.60
2023-03-26T13:09:27.697Z,1.02
2023-03-26T13:12:23.158Z,0.73
2023-03-26T13:15:08.963Z,0.75
2023-03-26T13:17:48.440Z,0.83
2023-03-26T13:20:41.932Z,0.60
2023-03-26T13:23:14.500Z,0.50
2023-03-26T13:26:12.843Z,1.25
2023-03-26T13:29:15.855Z,0.82
2023-03-26T13:31:53.449Z,1.27
2023-03-26T13:34:55.166Z,1.35
2023-03-26T13:37:55.809Z,0.68
2023-03-26T13:40:42.433Z,0.88
2023-03-26T13:43:32.417Z,0.75
2023-03-26T13:46:41.141Z,0.70
2023-03-26T13:49:29.172Z,1.02
2023-03-26T13:52:04.409Z,0.70
2023-03-26T13:54:45.849Z,0.77
2023-03-26T13:57:21.554Z,0.73
2023-03-26T13:59:57.840Z,1.30
2023-03-26T14:02:40.639Z,0.50
2023-03-26T14:05:19.529Z,0.70
2023-03-26T14:07:55.103Z,0.28
2023-03-26T14:10:27.277Z,0.52
2023-03-26T14:13:15.366Z,0.50
2023-03-26T14:15:57.162Z,0.80
2023-03-26T14:18:42.392Z,0.30
2023-03-26T14:21:36.603Z,0.40
2023-03-26T14:24:21.431Z,0.70
2023-03-26T14:26:58.414Z,0.40
2023-03-26T14:29:29.983Z,0.52
2023-03-26T14:32:09.163Z,0.40
2023-03-26T14:35:06.663Z,0.30
2023-03-26T14:37:50.930Z,0.88
2023-03-26T14:40:33.048Z,0.57
2023-03-26T14:43:20.943Z,0.38
2023-03-26T14:46:07.516Z,0.82
2023-03-26T14:48:48.096Z,0.88
2023-03-26T14:51:52.192Z,0.70
2023-03-26T14:54:27.861Z,0.60
2023-03-26T14:57:32.970Z,0.45
2023-03-26T15:00:27.639Z,0.60
2023-03-26T15:03:09.627Z,0.68
2023-03-26T15:06:16.252Z,0.52
2023-03-26T15:09:04.254Z,0.60
2023-03-26T15:11:45.865Z,1.05
2023-03-26T15:14:51.050Z,0.40
2023-03-26T15:17:49.851Z,0.80
2023-03-26T15:21:13.655Z,0.57
2023-03-26T15:24:12.159Z,0.50
2023-03-26T15:27:09.689Z,0.43
2023-03-26T15:30:11.601Z,0.65
2023-03-26T15:33:17.973Z,0.32
2023-03-26T15:36:21.951Z,0.30
2023-03-26T15:39:06.836Z,0.80
2023-03-26T15:42:06.440Z,0.50
2023-03-26T15:44:50.764Z,0.28
2023-03-26T15:47:46.344Z,0.85
2023-03-26T15:50:16.065Z,0.70
2023-03-26T15:53:09.602Z,0.50
2023-03-26T15:56:05.762Z,0.82
2023-03-26T15:58:44.131Z,0.88
2023-03-26T16:01:48.490Z,0.32
2023-03-26T16:04:35.990Z,0.30
2023-03-26T16:07:23.908Z,0.67
2023-03-26T16:10:02.221Z,0.45
2023-03-26T16:12:46.283Z,0.73
2023-03-26T16:15:26.888Z,0.50
2023-03-26T16:18:09.357Z,0.40
2023-03-26T16:20:50.843Z,0.57
2023-03-26T16:23:34.483Z,0.50
2023-03-26T16:26:43.556Z,0.40
2023-03-26T16:29:26.034Z,0.60
2023-03-26T16:32:25.998Z,0.88
2023-03-26T16:35:15.628Z,0.83
2023-03-26T16:37:49.931Z,0.77
2023-03-26T16:40:16.517Z,0.90
2023-03-26T16:43:06.277Z,0.47
2023-03-26T16:45:43.633Z,0.30
2023-03-26T16:48:27.714Z,0.27
2023-03-26T16:51:10.105Z,0.68
2023-03-26T16:54:17.435Z,0.35
2023-03-26T16:56:55.084Z,0.40
2023-03-26T17:00:05.755Z,0.52
2023-03-26T17:02:41.745Z,0.20
2023-03-26T17:05:19.788Z,0.50
2023-03-26T17:08:01.275Z,0.40
2023-03-26T17:11:00.449Z,0.32
2023-03-26T17:13:50.794Z,0.20
2023-03-26T17:16:47.666Z,0.30
2023-03-26T17:19:14.080Z,0.60
2023-03-26T17:21:52.240Z,0.55
2023-03-26T17:24:33.410Z,0.32
2023-03-26T17:27:25.258Z,0.47
2023-03-26T17:30:21.032Z,0.60
2023-03-26T17:33:13.589Z,0.38
2023-03-26T17:35:44.651Z,0.40
2023-03-26T17:38:17.266Z,0.50
2023-03-26T17:40:56.752Z,0.75
2023-03-26T17:43:46.528Z,0.60
2023-03-26T17:46:36.480Z,0.50
2023-03-26T17:49:12.050Z,0.22
2023-03-26T17:52:06.857Z,0.80
2023-03-26T17:54:41.285Z,0.30
2023-03-26T17:57:39.955Z,0.23
2023-03-26T18:00:09.193Z,0.98
2023-03-26T18:02:43.303Z,0.65
2023-03-26T18:05:13.677Z,0.50
2023-03-26T18:08:06.107Z,0.70
2023-03-26T18:11:01.385Z,1.17
2023-03-26T18:13:52.072Z,0.50
2023-03-26T18:16:49.596Z,0.40
2023-03-26T18:19:22.648Z,0.95
2023-03-26T18:21:56.769Z,0.20
2023-03-26T18:24:37.607Z,0.50
2023-03-26T18:27:22.194Z,0.32
2023-03-26T18:30:01.708Z,0.30
2023-03-26T18:32:33.175Z,0.30
2023-03-26T18:35:13.351Z,0.30
2023-03-26T18:37:40.338Z,0.73
2023-03-26T18:40:24.299Z,0.50
2023-03-26T18:43:01.068Z,0.63
2023-03-26T18:45:33.542Z,0.32
2023-03-26T18:48:04.546Z,0.60
2023-03-26T18:50:36.929Z,0.70
2023-03-26T18:53:06.153Z,0.40
2023-03-26T18:55:39.173Z,0.38
2023-03-26T18:58:23.494Z,0.20
2023-03-26T19:00:52.845Z,0.60
2023-03-26T19:03:24.453Z,0.50
2023-03-26T19:05:53.672Z,0.77
2023-03-26T19:08:23.704Z,1.23
2023-03-26T19:10:51.913Z,0.73
2023-03-26T19:13:21.363Z,0.38
2023-03-26T19:15:51.263Z,0.50
2023-03-26T19:18:22.192Z,0.63
2023-03-26T19:20:52.993Z,0.57
2023-03-26T19:23:28.525Z,0.40
2023-03-26T19:25:57.053Z,0.50
2023-03-26T19:28:27.922Z,0.53
2023-03-26T19:31:06.216Z,0.77
2023-03-26T19:33:34.836Z,0.50
2023-03-26T19:36:17.705Z,1.05
2023-03-26T19:38:53.219Z,0.50
2023-03-26T19:41:25.663Z,0.43
2023-03-26T19:43:59.075Z,0.28
2023-03-26T19:46:27.655Z,0.63
2023-03-26T19:48:56.440Z,0.63
2023-03-26T19:51:36.888Z,0.40
2023-03-26T19:54:13.852Z,0.27
2023-03-26T19:56:40.552Z,0.35
2023-03-26T19:59:07.283Z,0.30
2023-03-26T20:01:33.848Z,0.30
2023-03-26T20:04:06.516Z,0.50
2023-03-26T20:06:43.400Z,0.93
2023-03-26T20:09:12.869Z,0.47
2023-03-26T20:11:40.643Z,0.30
2023-03-26T20:14:15.715Z,0.55
2023-03-26T20:16:45.032Z,0.30
2023-03-26T20:19:13.902Z,0.40
2023-03-26T20:21:41.470Z,0.22
2023-03-26T20:24:13.053Z,0.57
2023-03-26T20:26:39.469Z,1.00
2023-03-26T20:29:06.159Z,0.10
2023-03-26T20:31:32.723Z,0.50
2023-03-26T20:33:59.388Z,0.30
2023-03-26T20:36:34.077Z,0.55
2023-03-26T20:39:08.422Z,0.40
2023-03-26T20:41:38.055Z,0.60
2023-03-26T20:44:13.430Z,0.20
2023-03-26T20:46:39.851Z,0.30
2023-03-26T20:49:06.651Z,0.55
2023-03-26T20:51:33.072Z,0.28
2023-03-26T20:54:00.516Z,0.40
2023-03-26T20:56:27.091Z,0.40
2023-03-26T20:59:09.964Z,0.98
2023-03-26T21:01:38.447Z,0.45
2023-03-26T21:04:05.400Z,0.43
2023-03-26T21:06:31.991Z,0.20
2023-03-26T21:08:58.829Z,0.30
2023-03-26T21:11:47.580Z,0.20
2023-03-26T21:14:25.415Z,0.50
2023-03-26T21:16:52.525Z,0.20
2023-03-26T21:19:20.053Z,0.40
2023-03-26T21:21:50.598Z,0.20
2023-03-26T21:24:44.961Z,0.20
2023-03-26T21:27:26.442Z,0.40
2023-03-26T21:29:54.389Z,0.22
2023-03-26T21:32:22.450Z,1.77
2023-03-26T21:34:58.758Z,0.17
2023-03-26T21:37:26.855Z,0.28
2023-03-26T21:39:53.617Z,0.20
2023-03-26T21:42:20.373Z,0.20
2023-03-26T21:44:47.602Z,0.38
2023-03-26T21:47:14.839Z,0.20
2023-03-26T21:49:41.602Z,0.30
2023-03-26T21:52:13.555Z,0.40
2023-03-26T21:54:43.268Z,0.38
2023-03-26T21:57:17.662Z,0.40
2023-03-26T21:59:56.524Z,0.40
2023-03-26T22:02:32.164Z,0.40
2023-03-26T22:05:12.517Z,0.68
2023-03-26T22:07:50.877Z,0.43
2023-03-26T22:10:17.757Z,0.45
2023-03-26T22:12:44.396Z,0.60
2023-03-26T22:15:13.831Z,0.25
2023-03-26T22:17:43.706Z,0.20
2023-03-26T22:20:12.492Z,0.40
2023-03-26T22:22:48.640Z,0.40
2023-03-26T22:25:17.714Z,0.30
2023-03-26T22:27:46.130Z,0.22
2023-03-26T22:30:13.932Z,0.47
2023-03-26T22:32:40.781Z,0.40
2023-03-26T22:35:07.649Z,0.20
2023-03-26T22:37:35.558Z,0.33
2023-03-26T22:40:02.051Z,0.30
2023-03-26T22:42:28.457Z,0.50
2023-03-26T22:44:54.937Z,0.15
2023-03-26T22:47:21.787Z,0.20
2023-03-26T22:49:48.227Z,0.50
2023-03-26T22:52:14.644Z,0.47
2023-03-26T22:54:41.283Z,0.45
2023-03-26T22:57:08.028Z,0.25
2023-03-26T22:59:34.490Z,0.30
2023-03-26T23:02:01.229Z,0.20
2023-03-26T23:04:31.721Z,0.47
2023-03-26T23:06:58.800Z,0.40
2023-03-26T23:09:25.377Z,0.30
2023-03-26T23:11:51.814Z,0.28
2023-03-26T23:14:19.012Z,0.20
2023-03-26T23:16:48.456Z,0.40
2023-03-26T23:19:14.985Z,0.40
2023-03-26T23:21:41.442Z,0.22
2023-03-26T23:24:08.147Z,0.50
2023-03-26T23:26:43.948Z,0.30
2023-03-26T23:29:16.438Z,0.30
2023-03-26T23:31:42.989Z,0.30
2023-03-26T23:34:10.041Z,0.75
2023-03-26T23:36:36.445Z,0.20
2023-03-26T23:39:04.664Z,0.20
2023-03-26T23:41:31.284Z,0.30
2023-03-26T23:43:57.684Z,0.73
2023-03-26T23:46:30.082Z,0.93
2023-03-26T23:48:59.833Z,0.38
2023-03-26T23:51:26.995Z,0.30
2023-03-26T23:53:53.704Z,0.40
2023-03-26T23:56:20.236Z,0.43
2023-03-26T23:58:47.664Z,0.40
